Naples Municipal Airport
KAPF : now visible

Airfield :











YOU CAN JOIN US ON...

 
LOGIN :

Register | Disclaimer

   EN    FR    IT 

 









Legend :    VFR   Marginal VFR   IFR   Intensive IFR   Very Intensive IFR
Visi :
Ceiling :
>= 8 km
>= 3000ft
5 to 8 km
1000 to 3000 ft
1500m to 5 km
500 to 1000 ft
800 to 1500m
200 to 500 ft
< 800m
< 200 ft
Symbols :   Thunderstorms  Fog  Heavy snow  Heavy precipitations  Wind > 20 kt







- Airport Elevation : 8 ft


KAPF - Naples Municipal

CURRENT METAR :
  • 160553Z AUTO 00000KT 10SM CLR 27/24 A2995 RMK AO2 SLP139 T02720239 10300 20272 58001 $

EXPIRED METARs :
  • 160453Z AUTO 00000KT 10SM CLR 28/23 A2995 RMK AO2 SLP140 T02830233 403220256 $
  • 160353Z AUTO 35003KT 10SM CLR 28/24 A2995 RMK AO2 SLP141 T02830239 $

TAF KAPF
Valid from the 16 at 06:00 until the 17 at 06:00 UTC


160521Z 1606/1706 VRB03KT P6SM FEW035 FEW250
FM161400 33010KT P6SM SCT030 SCT250
FM170300 33005KT P6SM FEW030 FEW250
No reported NOTAMs for that airfield.



MET'MAP, your aeronautical weather chart ! - Copyright ORBIFLY December 2007 - Disclaimer

ORBIFLY MET'MAP TEAM :

Programming & Development : Alexandra Zaïnal
Concept & Development : Baudouin d'Aumeries
Co-Development & Prog : Marc-Olivier Méhu
Technical & hardware support : Manuel Goepfert

Contact : metmap@orbifly.com




SOURCES & CREDITS :

   NOAA       Earth
Advisory